sensor_id;sensor_type;location;lat;lon;timestamp;P1;durP1;ratioP1;P2;durP2;ratioP2
38715;SDS011;24833;49.324;8.694;2022-12-07T00:01:34;5.57;;;4.05;;
38715;SDS011;24833;49.324;8.694;2022-12-07T00:04:05;5.60;;;4.25;;
38715;SDS011;24833;49.324;8.694;2022-12-07T00:06:34;5.68;;;4.32;;
38715;SDS011;24833;49.324;8.694;2022-12-07T00:09:08;6.50;;;4.22;;
38715;SDS011;24833;49.324;8.694;2022-12-07T00:11:41;6.03;;;4.57;;
38715;SDS011;24833;49.324;8.694;2022-12-07T00:14:13;7.55;;;4.28;;
38715;SDS011;24833;49.324;8.694;2022-12-07T00:16:41;5.97;;;4.53;;
38715;SDS011;24833;49.324;8.694;2022-12-07T00:19:10;5.45;;;4.25;;
38715;SDS011;24833;49.324;8.694;2022-12-07T00:21:39;5.22;;;4.00;;
38715;SDS011;24833;49.324;8.694;2022-12-07T00:24:06;6.18;;;4.55;;
38715;SDS011;24833;49.324;8.694;2022-12-07T00:26:34;6.60;;;4.40;;
38715;SDS011;24833;49.324;8.694;2022-12-07T00:29:16;5.07;;;4.20;;
38715;SDS011;24833;49.324;8.694;2022-12-07T00:31:46;4.47;;;4.07;;
38715;SDS011;24833;49.324;8.694;2022-12-07T00:34:18;5.93;;;4.05;;
38715;SDS011;24833;49.324;8.694;2022-12-07T00:36:46;8.13;;;4.85;;
38715;SDS011;24833;49.324;8.694;2022-12-07T00:39:15;6.35;;;4.65;;
38715;SDS011;24833;49.324;8.694;2022-12-07T00:41:42;7.60;;;5.13;;
38715;SDS011;24833;49.324;8.694;2022-12-07T00:44:09;7.63;;;4.63;;
38715;SDS011;24833;49.324;8.694;2022-12-07T00:46:36;6.85;;;4.65;;
38715;SDS011;24833;49.324;8.694;2022-12-07T00:49:03;7.18;;;4.53;;
38715;SDS011;24833;49.324;8.694;2022-12-07T00:51:30;6.22;;;4.88;;
38715;SDS011;24833;49.324;8.694;2022-12-07T00:53:58;6.00;;;4.05;;
38715;SDS011;24833;49.324;8.694;2022-12-07T00:56:25;6.18;;;4.35;;
38715;SDS011;24833;49.324;8.694;2022-12-07T01:01:24;7.25;;;4.53;;
38715;SDS011;24833;49.324;8.694;2022-12-07T01:03:54;7.50;;;4.80;;
38715;SDS011;24833;49.324;8.694;2022-12-07T01:06:25;6.57;;;4.13;;
38715;SDS011;24833;49.324;8.694;2022-12-07T01:08:52;6.00;;;4.53;;
38715;SDS011;24833;49.324;8.694;2022-12-07T01:11:21;6.28;;;4.60;;
38715;SDS011;24833;49.324;8.694;2022-12-07T01:13:51;6.15;;;4.40;;
38715;SDS011;24833;49.324;8.694;2022-12-07T01:16:21;5.47;;;4.33;;
38715;SDS011;24833;49.324;8.694;2022-12-07T01:18:52;7.15;;;4.53;;
38715;SDS011;24833;49.324;8.694;2022-12-07T01:21:28;5.35;;;4.15;;
38715;SDS011;24833;49.324;8.694;2022-12-07T01:24:02;6.03;;;4.30;;
38715;SDS011;24833;49.324;8.694;2022-12-07T01:26:31;6.15;;;4.32;;
38715;SDS011;24833;49.324;8.694;2022-12-07T01:28:58;5.93;;;4.30;;
38715;SDS011;24833;49.324;8.694;2022-12-07T01:31:27;6.70;;;4.32;;
38715;SDS011;24833;49.324;8.694;2022-12-07T01:33:56;6.13;;;4.38;;
38715;SDS011;24833;49.324;8.694;2022-12-07T01:36:26;7.97;;;4.40;;
38715;SDS011;24833;49.324;8.694;2022-12-07T01:39:04;6.15;;;4.60;;
38715;SDS011;24833;49.324;8.694;2022-12-07T01:41:34;5.38;;;3.97;;
38715;SDS011;24833;49.324;8.694;2022-12-07T01:44:11;6.32;;;4.03;;
38715;SDS011;24833;49.324;8.694;2022-12-07T01:46:44;6.43;;;4.28;;
38715;SDS011;24833;49.324;8.694;2022-12-07T01:52:18;5.55;;;4.10;;
38715;SDS011;24833;49.324;8.694;2022-12-07T01:54:54;6.50;;;4.13;;
38715;SDS011;24833;49.324;8.694;2022-12-07T01:57:30;5.50;;;4.50;;
38715;SDS011;24833;49.324;8.694;2022-12-07T02:00:00;6.78;;;4.55;;
38715;SDS011;24833;49.324;8.694;2022-12-07T02:05:34;8.35;;;4.90;;
38715;SDS011;24833;49.324;8.694;2022-12-07T02:08:03;6.57;;;4.85;;
38715;SDS011;24833;49.324;8.694;2022-12-07T02:10:31;7.07;;;5.00;;
38715;SDS011;24833;49.324;8.694;2022-12-07T02:13:04;7.60;;;4.70;;
38715;SDS011;24833;49.324;8.694;2022-12-07T02:15:45;6.68;;;4.82;;
38715;SDS011;24833;49.324;8.694;2022-12-07T02:30:20;6.40;;;4.70;;
38715;SDS011;24833;49.324;8.694;2022-12-07T02:32:51;4.85;;;4.07;;
38715;SDS011;24833;49.324;8.694;2022-12-07T02:38:18;6.53;;;4.95;;
38715;SDS011;24833;49.324;8.694;2022-12-07T02:41:05;6.78;;;4.72;;
38715;SDS011;24833;49.324;8.694;2022-12-07T02:43:43;5.95;;;4.90;;
38715;SDS011;24833;49.324;8.694;2022-12-07T02:46:17;5.57;;;4.15;;
38715;SDS011;24833;49.324;8.694;2022-12-07T02:48:54;5.38;;;4.57;;
38715;SDS011;24833;49.324;8.694;2022-12-07T02:51:22;7.45;;;5.28;;
38715;SDS011;24833;49.324;8.694;2022-12-07T02:53:49;6.57;;;4.93;;
38715;SDS011;24833;49.324;8.694;2022-12-07T03:08:37;7.25;;;4.32;;
38715;SDS011;24833;49.324;8.694;2022-12-07T03:14:22;4.80;;;4.05;;
38715;SDS011;24833;49.324;8.694;2022-12-07T03:16:57;5.25;;;4.15;;
38715;SDS011;24833;49.324;8.694;2022-12-07T03:19:40;5.70;;;4.50;;
38715;SDS011;24833;49.324;8.694;2022-12-07T03:22:10;6.65;;;4.65;;
38715;SDS011;24833;49.324;8.694;2022-12-07T03:24:45;5.65;;;4.63;;
38715;SDS011;24833;49.324;8.694;2022-12-07T03:27:22;6.93;;;4.25;;
38715;SDS011;24833;49.324;8.694;2022-12-07T03:30:39;4.40;;;3.85;;
38715;SDS011;24833;49.324;8.694;2022-12-07T03:32:55;6.35;;;4.85;;
38715;SDS011;24833;49.324;8.694;2022-12-07T03:35:34;6.05;;;4.25;;
38715;SDS011;24833;49.324;8.694;2022-12-07T03:41:01;7.72;;;4.78;;
38715;SDS011;24833;49.324;8.694;2022-12-07T03:43:53;5.43;;;4.20;;
38715;SDS011;24833;49.324;8.694;2022-12-07T03:46:26;5.18;;;4.43;;
38715;SDS011;24833;49.324;8.694;2022-12-07T03:57:05;5.65;;;4.28;;
38715;SDS011;24833;49.324;8.694;2022-12-07T03:59:34;7.68;;;4.68;;
38715;SDS011;24833;49.324;8.694;2022-12-07T04:02:04;6.60;;;4.78;;
38715;SDS011;24833;49.324;8.694;2022-12-07T04:04:33;6.20;;;4.85;;
38715;SDS011;24833;49.324;8.694;2022-12-07T04:07:01;6.15;;;4.97;;
38715;SDS011;24833;49.324;8.694;2022-12-07T04:09:28;7.88;;;5.25;;
38715;SDS011;24833;49.324;8.694;2022-12-07T04:11:55;6.70;;;5.43;;
38715;SDS011;24833;49.324;8.694;2022-12-07T04:14:22;9.05;;;5.50;;
38715;SDS011;24833;49.324;8.694;2022-12-07T04:16:53;7.28;;;5.60;;
38715;SDS011;24833;49.324;8.694;2022-12-07T04:19:23;5.95;;;4.72;;
38715;SDS011;24833;49.324;8.694;2022-12-07T04:21:56;5.97;;;5.38;;
38715;SDS011;24833;49.324;8.694;2022-12-07T04:24:26;9.00;;;6.03;;
38715;SDS011;24833;49.324;8.694;2022-12-07T04:26:53;7.97;;;5.43;;
38715;SDS011;24833;49.324;8.694;2022-12-07T04:29:20;8.75;;;6.10;;
38715;SDS011;24833;49.324;8.694;2022-12-07T04:31:48;9.88;;;6.25;;
38715;SDS011;24833;49.324;8.694;2022-12-07T04:34:16;7.38;;;5.60;;
38715;SDS011;24833;49.324;8.694;2022-12-07T04:36:44;7.82;;;6.00;;
38715;SDS011;24833;49.324;8.694;2022-12-07T04:39:20;10.75;;;6.90;;
38715;SDS011;24833;49.324;8.694;2022-12-07T04:41:51;9.05;;;6.50;;
38715;SDS011;24833;49.324;8.694;2022-12-07T04:44:19;7.93;;;6.05;;
38715;SDS011;24833;49.324;8.694;2022-12-07T04:46:47;8.15;;;6.40;;
38715;SDS011;24833;49.324;8.694;2022-12-07T04:49:15;8.95;;;6.60;;
38715;SDS011;24833;49.324;8.694;2022-12-07T04:51:43;9.70;;;6.65;;
38715;SDS011;24833;49.324;8.694;2022-12-07T04:54:11;9.13;;;6.78;;
38715;SDS011;24833;49.324;8.694;2022-12-07T04:56:39;9.25;;;6.50;;
38715;SDS011;24833;49.324;8.694;2022-12-07T04:59:07;7.90;;;5.85;;
38715;SDS011;24833;49.324;8.694;2022-12-07T05:01:36;7.68;;;5.97;;
38715;SDS011;24833;49.324;8.694;2022-12-07T05:04:03;9.00;;;7.05;;
38715;SDS011;24833;49.324;8.694;2022-12-07T05:06:31;8.45;;;6.72;;
38715;SDS011;24833;49.324;8.694;2022-12-07T05:08:58;8.88;;;6.13;;
38715;SDS011;24833;49.324;8.694;2022-12-07T05:11:25;7.40;;;6.40;;
38715;SDS011;24833;49.324;8.694;2022-12-07T05:14:05;9.27;;;6.35;;
38715;SDS011;24833;49.324;8.694;2022-12-07T05:16:41;8.77;;;6.72;;
38715;SDS011;24833;49.324;8.694;2022-12-07T05:19:10;9.38;;;7.97;;
38715;SDS011;24833;49.324;8.694;2022-12-07T05:21:38;9.85;;;6.85;;
38715;SDS011;24833;49.324;8.694;2022-12-07T05:24:06;11.05;;;7.38;;
38715;SDS011;24833;49.324;8.694;2022-12-07T05:26:35;10.00;;;7.32;;
38715;SDS011;24833;49.324;8.694;2022-12-07T05:29:03;8.52;;;6.43;;
38715;SDS011;24833;49.324;8.694;2022-12-07T05:31:30;8.80;;;6.47;;
38715;SDS011;24833;49.324;8.694;2022-12-07T05:33:58;9.52;;;6.45;;
38715;SDS011;24833;49.324;8.694;2022-12-07T05:36:25;7.75;;;6.47;;
38715;SDS011;24833;49.324;8.694;2022-12-07T05:38:54;10.25;;;6.25;;
38715;SDS011;24833;49.324;8.694;2022-12-07T05:41:21;8.77;;;6.40;;
38715;SDS011;24833;49.324;8.694;2022-12-07T05:44:06;8.35;;;6.38;;
38715;SDS011;24833;49.324;8.694;2022-12-07T05:46:34;9.10;;;6.55;;
38715;SDS011;24833;49.324;8.694;2022-12-07T05:49:01;9.82;;;6.65;;
38715;SDS011;24833;49.324;8.694;2022-12-07T05:51:29;9.82;;;7.63;;
38715;SDS011;24833;49.324;8.694;2022-12-07T05:53:56;9.05;;;7.05;;
38715;SDS011;24833;49.324;8.694;2022-12-07T05:56:23;12.00;;;7.55;;
38715;SDS011;24833;49.324;8.694;2022-12-07T05:58:50;11.43;;;7.72;;
38715;SDS011;24833;49.324;8.694;2022-12-07T06:01:35;11.32;;;8.52;;
38715;SDS011;24833;49.324;8.694;2022-12-07T06:04:02;8.60;;;6.85;;
38715;SDS011;24833;49.324;8.694;2022-12-07T06:06:30;10.13;;;7.93;;
38715;SDS011;24833;49.324;8.694;2022-12-07T06:08:57;11.07;;;7.90;;
38715;SDS011;24833;49.324;8.694;2022-12-07T06:11:24;11.93;;;7.90;;
38715;SDS011;24833;49.324;8.694;2022-12-07T06:14:09;9.32;;;7.40;;
38715;SDS011;24833;49.324;8.694;2022-12-07T06:16:36;10.80;;;7.60;;
38715;SDS011;24833;49.324;8.694;2022-12-07T06:19:04;10.98;;;7.80;;
38715;SDS011;24833;49.324;8.694;2022-12-07T06:21:31;10.40;;;7.85;;
38715;SDS011;24833;49.324;8.694;2022-12-07T06:23:58;9.57;;;7.45;;
38715;SDS011;24833;49.324;8.694;2022-12-07T06:26:25;10.15;;;7.13;;
38715;SDS011;24833;49.324;8.694;2022-12-07T06:28:52;11.32;;;8.70;;
38715;SDS011;24833;49.324;8.694;2022-12-07T06:31:19;10.23;;;7.50;;
38715;SDS011;24833;49.324;8.694;2022-12-07T06:33:46;10.50;;;8.07;;
38715;SDS011;24833;49.324;8.694;2022-12-07T06:36:13;12.48;;;8.50;;
38715;SDS011;24833;49.324;8.694;2022-12-07T06:38:40;9.85;;;7.70;;
38715;SDS011;24833;49.324;8.694;2022-12-07T06:41:07;11.40;;;7.53;;
38715;SDS011;24833;49.324;8.694;2022-12-07T06:43:34;8.32;;;7.07;;
38715;SDS011;24833;49.324;8.694;2022-12-07T06:46:01;10.20;;;7.97;;
38715;SDS011;24833;49.324;8.694;2022-12-07T06:48:28;11.27;;;8.25;;
38715;SDS011;24833;49.324;8.694;2022-12-07T06:50:55;12.18;;;8.98;;
38715;SDS011;24833;49.324;8.694;2022-12-07T06:53:22;10.30;;;7.57;;
38715;SDS011;24833;49.324;8.694;2022-12-07T06:55:49;10.55;;;7.90;;
38715;SDS011;24833;49.324;8.694;2022-12-07T06:58:17;10.65;;;7.47;;
38715;SDS011;24833;49.324;8.694;2022-12-07T07:00:44;9.80;;;7.80;;
38715;SDS011;24833;49.324;8.694;2022-12-07T07:03:13;10.68;;;7.40;;
38715;SDS011;24833;49.324;8.694;2022-12-07T07:05:41;10.23;;;7.50;;
38715;SDS011;24833;49.324;8.694;2022-12-07T07:08:09;11.02;;;7.80;;
38715;SDS011;24833;49.324;8.694;2022-12-07T07:10:51;10.13;;;7.80;;
38715;SDS011;24833;49.324;8.694;2022-12-07T07:13:19;9.85;;;7.25;;
38715;SDS011;24833;49.324;8.694;2022-12-07T07:15:46;9.38;;;7.57;;
38715;SDS011;24833;49.324;8.694;2022-12-07T07:18:13;9.20;;;7.05;;
38715;SDS011;24833;49.324;8.694;2022-12-07T07:20:39;10.15;;;8.23;;
38715;SDS011;24833;49.324;8.694;2022-12-07T07:23:07;9.80;;;7.28;;
38715;SDS011;24833;49.324;8.694;2022-12-07T07:25:34;10.02;;;7.80;;
38715;SDS011;24833;49.324;8.694;2022-12-07T07:28:01;10.75;;;8.30;;
38715;SDS011;24833;49.324;8.694;2022-12-07T07:30:28;11.88;;;8.18;;
38715;SDS011;24833;49.324;8.694;2022-12-07T07:33:05;9.25;;;7.38;;
38715;SDS011;24833;49.324;8.694;2022-12-07T07:35:33;10.85;;;7.85;;
38715;SDS011;24833;49.324;8.694;2022-12-07T07:38:00;12.48;;;8.60;;
38715;SDS011;24833;49.324;8.694;2022-12-07T07:40:28;11.52;;;8.70;;
38715;SDS011;24833;49.324;8.694;2022-12-07T07:42:55;11.48;;;7.80;;
38715;SDS011;24833;49.324;8.694;2022-12-07T07:45:23;10.45;;;7.80;;
38715;SDS011;24833;49.324;8.694;2022-12-07T07:47:52;11.52;;;8.13;;
38715;SDS011;24833;49.324;8.694;2022-12-07T07:50:19;11.63;;;8.48;;
38715;SDS011;24833;49.324;8.694;2022-12-07T07:52:47;11.05;;;8.98;;
38715;SDS011;24833;49.324;8.694;2022-12-07T07:55:14;11.43;;;8.60;;
38715;SDS011;24833;49.324;8.694;2022-12-07T07:57:43;13.18;;;9.32;;
38715;SDS011;24833;49.324;8.694;2022-12-07T08:00:18;10.88;;;8.52;;
38715;SDS011;24833;49.324;8.694;2022-12-07T08:02:45;10.93;;;8.23;;
38715;SDS011;24833;49.324;8.694;2022-12-07T08:05:13;11.50;;;8.80;;
38715;SDS011;24833;49.324;8.694;2022-12-07T08:07:40;12.93;;;9.15;;
38715;SDS011;24833;49.324;8.694;2022-12-07T08:10:09;11.60;;;8.55;;
38715;SDS011;24833;49.324;8.694;2022-12-07T08:15:28;11.30;;;8.38;;
38715;SDS011;24833;49.324;8.694;2022-12-07T08:17:57;12.02;;;8.00;;
38715;SDS011;24833;49.324;8.694;2022-12-07T08:20:24;12.52;;;8.70;;
38715;SDS011;24833;49.324;8.694;2022-12-07T08:22:52;11.75;;;7.75;;
38715;SDS011;24833;49.324;8.694;2022-12-07T08:25:19;10.70;;;8.32;;
38715;SDS011;24833;49.324;8.694;2022-12-07T08:27:48;9.88;;;7.90;;
38715;SDS011;24833;49.324;8.694;2022-12-07T08:30:17;11.30;;;8.68;;
38715;SDS011;24833;49.324;8.694;2022-12-07T08:32:44;12.52;;;8.93;;
38715;SDS011;24833;49.324;8.694;2022-12-07T08:35:13;12.40;;;9.40;;
38715;SDS011;24833;49.324;8.694;2022-12-07T08:37:41;11.20;;;8.48;;
38715;SDS011;24833;49.324;8.694;2022-12-07T08:40:08;12.65;;;9.40;;
38715;SDS011;24833;49.324;8.694;2022-12-07T08:42:37;15.02;;;10.32;;
38715;SDS011;24833;49.324;8.694;2022-12-07T08:45:07;13.48;;;9.90;;
38715;SDS011;24833;49.324;8.694;2022-12-07T08:47:37;13.23;;;9.82;;
38715;SDS011;24833;49.324;8.694;2022-12-07T08:50:09;12.30;;;9.07;;
38715;SDS011;24833;49.324;8.694;2022-12-07T08:52:37;15.15;;;9.70;;
38715;SDS011;24833;49.324;8.694;2022-12-07T08:55:08;13.18;;;10.15;;
38715;SDS011;24833;49.324;8.694;2022-12-07T08:57:37;13.35;;;9.27;;
38715;SDS011;24833;49.324;8.694;2022-12-07T09:00:06;11.73;;;9.00;;
38715;SDS011;24833;49.324;8.694;2022-12-07T09:02:34;11.25;;;8.77;;
38715;SDS011;24833;49.324;8.694;2022-12-07T09:05:01;12.40;;;8.85;;
38715;SDS011;24833;49.324;8.694;2022-12-07T09:07:29;12.50;;;9.43;;
38715;SDS011;24833;49.324;8.694;2022-12-07T09:09:58;12.23;;;9.00;;
38715;SDS011;24833;49.324;8.694;2022-12-07T09:12:25;13.05;;;8.57;;
38715;SDS011;24833;49.324;8.694;2022-12-07T09:14:53;13.23;;;9.27;;
38715;SDS011;24833;49.324;8.694;2022-12-07T09:17:20;12.60;;;8.95;;
38715;SDS011;24833;49.324;8.694;2022-12-07T09:19:47;13.23;;;8.88;;
38715;SDS011;24833;49.324;8.694;2022-12-07T09:22:14;12.07;;;8.23;;
38715;SDS011;24833;49.324;8.694;2022-12-07T09:24:40;10.30;;;7.53;;
38715;SDS011;24833;49.324;8.694;2022-12-07T09:27:07;13.30;;;8.45;;
38715;SDS011;24833;49.324;8.694;2022-12-07T09:29:34;12.38;;;8.38;;
38715;SDS011;24833;49.324;8.694;2022-12-07T09:32:01;11.93;;;8.32;;
38715;SDS011;24833;49.324;8.694;2022-12-07T09:34:36;11.77;;;8.63;;
38715;SDS011;24833;49.324;8.694;2022-12-07T09:37:03;12.63;;;8.02;;
38715;SDS011;24833;49.324;8.694;2022-12-07T09:39:30;13.02;;;9.52;;
38715;SDS011;24833;49.324;8.694;2022-12-07T09:41:58;11.73;;;8.95;;
38715;SDS011;24833;49.324;8.694;2022-12-07T09:44:29;14.43;;;9.02;;
38715;SDS011;24833;49.324;8.694;2022-12-07T09:46:57;13.05;;;8.95;;
38715;SDS011;24833;49.324;8.694;2022-12-07T09:49:27;11.70;;;8.48;;
38715;SDS011;24833;49.324;8.694;2022-12-07T09:55:02;13.30;;;8.15;;
38715;SDS011;24833;49.324;8.694;2022-12-07T09:57:31;13.45;;;8.93;;
38715;SDS011;24833;49.324;8.694;2022-12-07T10:00:02;14.73;;;11.02;;
38715;SDS011;24833;49.324;8.694;2022-12-07T10:02:41;12.75;;;9.30;;
38715;SDS011;24833;49.324;8.694;2022-12-07T10:05:14;12.13;;;9.00;;
38715;SDS011;24833;49.324;8.694;2022-12-07T10:07:50;14.85;;;9.02;;
38715;SDS011;24833;49.324;8.694;2022-12-07T10:10:23;13.18;;;9.20;;
38715;SDS011;24833;49.324;8.694;2022-12-07T10:13:06;14.70;;;9.65;;
38715;SDS011;24833;49.324;8.694;2022-12-07T10:23:59;13.40;;;9.25;;
38715;SDS011;24833;49.324;8.694;2022-12-07T10:26:49;12.25;;;9.07;;
38715;SDS011;24833;49.324;8.694;2022-12-07T10:29:20;12.90;;;8.80;;
38715;SDS011;24833;49.324;8.694;2022-12-07T10:32:04;12.80;;;9.27;;
38715;SDS011;24833;49.324;8.694;2022-12-07T10:35:11;12.52;;;9.45;;
38715;SDS011;24833;49.324;8.694;2022-12-07T10:37:57;11.45;;;9.02;;
38715;SDS011;24833;49.324;8.694;2022-12-07T10:40:30;11.80;;;8.60;;
38715;SDS011;24833;49.324;8.694;2022-12-07T10:43:00;11.55;;;8.55;;
38715;SDS011;24833;49.324;8.694;2022-12-07T10:45:29;11.00;;;8.45;;
38715;SDS011;24833;49.324;8.694;2022-12-07T11:00:21;17.60;;;11.25;;
38715;SDS011;24833;49.324;8.694;2022-12-07T11:03:00;18.95;;;11.77;;
38715;SDS011;24833;49.324;8.694;2022-12-07T11:06:05;19.88;;;12.80;;
38715;SDS011;24833;49.324;8.694;2022-12-07T11:09:04;15.10;;;10.73;;
38715;SDS011;24833;49.324;8.694;2022-12-07T11:12:57;14.68;;;10.13;;
38715;SDS011;24833;49.324;8.694;2022-12-07T11:16:02;17.13;;;11.90;;
38715;SDS011;24833;49.324;8.694;2022-12-07T11:21:57;16.83;;;11.23;;
38715;SDS011;24833;49.324;8.694;2022-12-07T11:25:02;15.73;;;10.32;;
38715;SDS011;24833;49.324;8.694;2022-12-07T11:34:21;12.68;;;9.77;;
38715;SDS011;24833;49.324;8.694;2022-12-07T11:37:32;13.52;;;10.07;;
38715;SDS011;24833;49.324;8.694;2022-12-07T11:46:14;10.55;;;9.05;;
38715;SDS011;24833;49.324;8.694;2022-12-07T11:48:44;13.45;;;8.93;;
38715;SDS011;24833;49.324;8.694;2022-12-07T11:51:20;10.93;;;9.07;;
38715;SDS011;24833;49.324;8.694;2022-12-07T11:56:27;11.32;;;8.65;;
38715;SDS011;24833;49.324;8.694;2022-12-07T11:59:08;12.43;;;8.65;;
38715;SDS011;24833;49.324;8.694;2022-12-07T12:02:02;12.48;;;8.77;;
38715;SDS011;24833;49.324;8.694;2022-12-07T12:04:59;12.85;;;8.75;;
38715;SDS011;24833;49.324;8.694;2022-12-07T12:07:32;11.57;;;9.13;;
38715;SDS011;24833;49.324;8.694;2022-12-07T12:10:37;14.48;;;9.50;;
38715;SDS011;24833;49.324;8.694;2022-12-07T12:13:52;10.35;;;7.45;;
38715;SDS011;24833;49.324;8.694;2022-12-07T12:20:03;11.93;;;7.95;;
38715;SDS011;24833;49.324;8.694;2022-12-07T12:23:07;12.50;;;8.80;;
38715;SDS011;24833;49.324;8.694;2022-12-07T12:25:45;11.40;;;8.63;;
38715;SDS011;24833;49.324;8.694;2022-12-07T12:28:34;11.15;;;8.38;;
38715;SDS011;24833;49.324;8.694;2022-12-07T12:36:19;12.20;;;8.38;;
38715;SDS011;24833;49.324;8.694;2022-12-07T12:39:15;11.30;;;8.07;;
38715;SDS011;24833;49.324;8.694;2022-12-07T12:52:49;13.70;;;9.75;;
38715;SDS011;24833;49.324;8.694;2022-12-07T12:58:48;14.18;;;8.48;;
38715;SDS011;24833;49.324;8.694;2022-12-07T13:01:47;12.05;;;8.75;;
38715;SDS011;24833;49.324;8.694;2022-12-07T13:04:17;12.20;;;9.10;;
38715;SDS011;24833;49.324;8.694;2022-12-07T13:06:50;13.93;;;9.85;;
38715;SDS011;24833;49.324;8.694;2022-12-07T13:09:22;12.32;;;8.88;;
38715;SDS011;24833;49.324;8.694;2022-12-07T13:12:00;10.63;;;8.32;;
38715;SDS011;24833;49.324;8.694;2022-12-07T13:25:03;11.82;;;7.75;;
38715;SDS011;24833;49.324;8.694;2022-12-07T13:27:54;11.05;;;8.10;;
38715;SDS011;24833;49.324;8.694;2022-12-07T13:30:53;9.57;;;7.75;;
38715;SDS011;24833;49.324;8.694;2022-12-07T13:33:41;12.20;;;8.30;;
38715;SDS011;24833;49.324;8.694;2022-12-07T13:36:19;11.23;;;7.95;;
38715;SDS011;24833;49.324;8.694;2022-12-07T13:41:41;10.70;;;7.78;;
38715;SDS011;24833;49.324;8.694;2022-12-07T13:44:11;12.45;;;8.68;;
38715;SDS011;24833;49.324;8.694;2022-12-07T13:49:46;11.50;;;8.13;;
38715;SDS011;24833;49.324;8.694;2022-12-07T13:52:26;11.35;;;7.95;;
38715;SDS011;24833;49.324;8.694;2022-12-07T13:57:26;11.30;;;8.48;;
38715;SDS011;24833;49.324;8.694;2022-12-07T13:59:57;11.45;;;8.45;;
38715;SDS011;24833;49.324;8.694;2022-12-07T14:02:29;11.18;;;8.95;;
38715;SDS011;24833;49.324;8.694;2022-12-07T14:05:14;11.07;;;7.82;;
38715;SDS011;24833;49.324;8.694;2022-12-07T14:07:55;13.48;;;8.75;;
38715;SDS011;24833;49.324;8.694;2022-12-07T14:10:34;13.77;;;10.02;;
38715;SDS011;24833;49.324;8.694;2022-12-07T14:16:27;10.60;;;7.53;;
38715;SDS011;24833;49.324;8.694;2022-12-07T14:19:04;10.48;;;7.60;;
38715;SDS011;24833;49.324;8.694;2022-12-07T14:22:05;10.25;;;7.22;;
38715;SDS011;24833;49.324;8.694;2022-12-07T14:24:41;10.27;;;7.82;;
38715;SDS011;24833;49.324;8.694;2022-12-07T14:27:19;11.00;;;7.60;;
38715;SDS011;24833;49.324;8.694;2022-12-07T14:29:51;8.60;;;7.22;;
38715;SDS011;24833;49.324;8.694;2022-12-07T14:32:23;11.75;;;8.23;;
38715;SDS011;24833;49.324;8.694;2022-12-07T14:37:40;12.35;;;6.85;;
38715;SDS011;24833;49.324;8.694;2022-12-07T14:40:12;10.82;;;6.97;;
38715;SDS011;24833;49.324;8.694;2022-12-07T14:42:43;9.75;;;7.47;;
38715;SDS011;24833;49.324;8.694;2022-12-07T14:45:14;9.93;;;7.03;;
38715;SDS011;24833;49.324;8.694;2022-12-07T14:50:33;7.75;;;5.95;;
38715;SDS011;24833;49.324;8.694;2022-12-07T14:53:29;10.20;;;6.25;;
38715;SDS011;24833;49.324;8.694;2022-12-07T14:56:03;10.25;;;7.28;;
38715;SDS011;24833;49.324;8.694;2022-12-07T14:58:34;10.80;;;7.15;;
38715;SDS011;24833;49.324;8.694;2022-12-07T15:01:01;8.65;;;7.25;;
38715;SDS011;24833;49.324;8.694;2022-12-07T15:03:29;9.23;;;6.97;;
38715;SDS011;24833;49.324;8.694;2022-12-07T15:05:57;10.27;;;7.47;;
38715;SDS011;24833;49.324;8.694;2022-12-07T15:08:27;10.75;;;7.57;;
38715;SDS011;24833;49.324;8.694;2022-12-07T15:10:54;11.07;;;7.78;;
38715;SDS011;24833;49.324;8.694;2022-12-07T15:13:21;10.07;;;7.40;;
38715;SDS011;24833;49.324;8.694;2022-12-07T15:16:08;11.52;;;7.05;;
38715;SDS011;24833;49.324;8.694;2022-12-07T15:18:39;11.50;;;7.35;;
38715;SDS011;24833;49.324;8.694;2022-12-07T15:21:23;10.52;;;8.35;;
38715;SDS011;24833;49.324;8.694;2022-12-07T15:23:51;11.75;;;7.55;;
38715;SDS011;24833;49.324;8.694;2022-12-07T15:26:18;10.25;;;7.60;;
38715;SDS011;24833;49.324;8.694;2022-12-07T15:28:45;10.10;;;6.85;;
38715;SDS011;24833;49.324;8.694;2022-12-07T15:31:13;11.10;;;7.05;;
38715;SDS011;24833;49.324;8.694;2022-12-07T15:34:02;10.98;;;7.47;;
38715;SDS011;24833;49.324;8.694;2022-12-07T15:36:30;11.50;;;7.53;;
38715;SDS011;24833;49.324;8.694;2022-12-07T15:39:00;11.88;;;7.63;;
38715;SDS011;24833;49.324;8.694;2022-12-07T15:41:43;11.15;;;7.00;;
38715;SDS011;24833;49.324;8.694;2022-12-07T15:44:11;10.55;;;7.22;;
38715;SDS011;24833;49.324;8.694;2022-12-07T15:46:58;11.70;;;7.70;;
38715;SDS011;24833;49.324;8.694;2022-12-07T15:49:26;9.32;;;7.10;;
38715;SDS011;24833;49.324;8.694;2022-12-07T15:51:53;10.35;;;7.28;;
38715;SDS011;24833;49.324;8.694;2022-12-07T15:54:21;11.98;;;7.43;;
38715;SDS011;24833;49.324;8.694;2022-12-07T15:56:54;10.38;;;7.47;;
38715;SDS011;24833;49.324;8.694;2022-12-07T15:59:22;12.20;;;8.20;;
38715;SDS011;24833;49.324;8.694;2022-12-07T16:01:50;12.52;;;8.13;;
38715;SDS011;24833;49.324;8.694;2022-12-07T16:04:17;11.55;;;8.10;;
38715;SDS011;24833;49.324;8.694;2022-12-07T16:06:44;11.23;;;7.25;;
38715;SDS011;24833;49.324;8.694;2022-12-07T16:09:11;12.00;;;8.23;;
38715;SDS011;24833;49.324;8.694;2022-12-07T16:11:38;11.00;;;7.97;;
38715;SDS011;24833;49.324;8.694;2022-12-07T16:14:05;11.48;;;7.78;;
38715;SDS011;24833;49.324;8.694;2022-12-07T16:16:32;11.40;;;8.23;;
38715;SDS011;24833;49.324;8.694;2022-12-07T16:18:59;10.93;;;7.50;;
38715;SDS011;24833;49.324;8.694;2022-12-07T16:21:26;10.05;;;6.70;;
38715;SDS011;24833;49.324;8.694;2022-12-07T16:23:54;9.07;;;6.72;;
38715;SDS011;24833;49.324;8.694;2022-12-07T16:26:24;10.48;;;6.88;;
38715;SDS011;24833;49.324;8.694;2022-12-07T16:28:51;9.48;;;7.50;;
38715;SDS011;24833;49.324;8.694;2022-12-07T16:31:20;10.65;;;7.90;;
38715;SDS011;24833;49.324;8.694;2022-12-07T16:33:49;12.75;;;8.63;;
38715;SDS011;24833;49.324;8.694;2022-12-07T16:36:20;14.80;;;8.48;;
38715;SDS011;24833;49.324;8.694;2022-12-07T16:39:08;13.45;;;8.23;;
38715;SDS011;24833;49.324;8.694;2022-12-07T16:41:35;12.07;;;8.25;;
38715;SDS011;24833;49.324;8.694;2022-12-07T16:44:06;8.85;;;7.43;;
38715;SDS011;24833;49.324;8.694;2022-12-07T16:46:39;10.27;;;7.47;;
38715;SDS011;24833;49.324;8.694;2022-12-07T16:49:06;11.40;;;7.60;;
38715;SDS011;24833;49.324;8.694;2022-12-07T16:51:39;11.77;;;7.70;;
38715;SDS011;24833;49.324;8.694;2022-12-07T16:54:12;9.93;;;8.18;;
38715;SDS011;24833;49.324;8.694;2022-12-07T16:56:39;13.30;;;8.50;;
38715;SDS011;24833;49.324;8.694;2022-12-07T16:59:06;9.98;;;7.60;;
38715;SDS011;24833;49.324;8.694;2022-12-07T17:01:34;10.07;;;7.97;;
38715;SDS011;24833;49.324;8.694;2022-12-07T17:04:02;11.00;;;8.65;;
38715;SDS011;24833;49.324;8.694;2022-12-07T17:06:30;11.65;;;8.38;;
38715;SDS011;24833;49.324;8.694;2022-12-07T17:08:57;12.18;;;7.78;;
38715;SDS011;24833;49.324;8.694;2022-12-07T17:11:26;11.93;;;8.10;;
38715;SDS011;24833;49.324;8.694;2022-12-07T17:13:56;13.18;;;8.32;;
38715;SDS011;24833;49.324;8.694;2022-12-07T17:16:42;13.95;;;8.30;;
38715;SDS011;24833;49.324;8.694;2022-12-07T17:19:11;10.30;;;7.45;;
38715;SDS011;24833;49.324;8.694;2022-12-07T17:21:41;10.32;;;7.75;;
38715;SDS011;24833;49.324;8.694;2022-12-07T17:24:10;9.60;;;7.20;;
38715;SDS011;24833;49.324;8.694;2022-12-07T17:26:40;10.85;;;8.10;;
38715;SDS011;24833;49.324;8.694;2022-12-07T17:29:10;13.05;;;8.07;;
38715;SDS011;24833;49.324;8.694;2022-12-07T17:31:39;12.13;;;8.57;;
38715;SDS011;24833;49.324;8.694;2022-12-07T17:34:15;13.45;;;9.07;;
38715;SDS011;24833;49.324;8.694;2022-12-07T17:36:42;11.02;;;7.25;;